sensor_id;sensor_type;location;lat;lon;timestamp;temperature;humidity
1225;DHT22;602;48.000;7.840;2022-12-11T00:02:20;1.90;99.90
1225;DHT22;602;48.000;7.840;2022-12-11T00:04:46;1.80;99.90
1225;DHT22;602;48.000;7.840;2022-12-11T00:07:13;2.00;99.90
1225;DHT22;602;48.000;7.840;2022-12-11T00:09:40;2.00;99.90
1225;DHT22;602;48.000;7.840;2022-12-11T00:12:07;2.10;99.90
1225;DHT22;602;48.000;7.840;2022-12-11T00:14:34;2.00;99.90
1225;DHT22;602;48.000;7.840;2022-12-11T00:17:01;2.00;99.90
1225;DHT22;602;48.000;7.840;2022-12-11T00:19:29;2.20;99.90
1225;DHT22;602;48.000;7.840;2022-12-11T00:21:56;2.20;99.90
1225;DHT22;602;48.000;7.840;2022-12-11T00:24:23;2.20;99.90
1225;DHT22;602;48.000;7.840;2022-12-11T00:26:50;2.30;99.90
1225;DHT22;602;48.000;7.840;2022-12-11T00:29:17;2.20;99.90
1225;DHT22;602;48.000;7.840;2022-12-11T00:31:43;2.20;99.90
1225;DHT22;602;48.000;7.840;2022-12-11T00:34:10;2.00;99.90
1225;DHT22;602;48.000;7.840;2022-12-11T00:36:39;1.90;99.90
1225;DHT22;602;48.000;7.840;2022-12-11T00:39:06;1.70;99.90
1225;DHT22;602;48.000;7.840;2022-12-11T00:41:33;1.60;99.90
1225;DHT22;602;48.000;7.840;2022-12-11T00:44:00;1.60;99.90
1225;DHT22;602;48.000;7.840;2022-12-11T00:46:27;1.70;99.90
1225;DHT22;602;48.000;7.840;2022-12-11T00:48:54;1.80;99.90
1225;DHT22;602;48.000;7.840;2022-12-11T00:51:21;1.80;99.90
1225;DHT22;602;48.000;7.840;2022-12-11T00:53:49;1.70;99.90
1225;DHT22;602;48.000;7.840;2022-12-11T00:56:18;1.70;99.90
1225;DHT22;602;48.000;7.840;2022-12-11T00:58:46;1.80;99.90
1225;DHT22;602;48.000;7.840;2022-12-11T01:01:16;1.80;99.90
1225;DHT22;602;48.000;7.840;2022-12-11T01:03:43;1.90;99.90
1225;DHT22;602;48.000;7.840;2022-12-11T01:06:13;1.90;99.90
1225;DHT22;602;48.000;7.840;2022-12-11T01:08:41;2.00;99.90
1225;DHT22;602;48.000;7.840;2022-12-11T01:11:11;1.90;99.90
1225;DHT22;602;48.000;7.840;2022-12-11T01:13:38;2.00;99.90
1225;DHT22;602;48.000;7.840;2022-12-11T01:16:06;2.00;99.90
1225;DHT22;602;48.000;7.840;2022-12-11T01:18:33;2.10;99.90
1225;DHT22;602;48.000;7.840;2022-12-11T01:21:05;2.10;99.90
1225;DHT22;602;48.000;7.840;2022-12-11T01:23:31;2.10;99.90
1225;DHT22;602;48.000;7.840;2022-12-11T01:26:04;2.00;99.90
1225;DHT22;602;48.000;7.840;2022-12-11T01:28:32;1.90;99.90
1225;DHT22;602;48.000;7.840;2022-12-11T01:30:59;1.80;99.90
1225;DHT22;602;48.000;7.840;2022-12-11T01:33:26;1.70;99.90
1225;DHT22;602;48.000;7.840;2022-12-11T01:35:53;1.80;99.90
1225;DHT22;602;48.000;7.840;2022-12-11T01:38:20;1.80;99.90
1225;DHT22;602;48.000;7.840;2022-12-11T01:40:47;1.80;99.90
1225;DHT22;602;48.000;7.840;2022-12-11T01:43:14;1.80;99.90
1225;DHT22;602;48.000;7.840;2022-12-11T01:45:43;1.80;99.90
1225;DHT22;602;48.000;7.840;2022-12-11T01:48:13;1.80;99.90
1225;DHT22;602;48.000;7.840;2022-12-11T01:50:44;1.70;99.90
1225;DHT22;602;48.000;7.840;2022-12-11T01:53:15;1.80;99.90
1225;DHT22;602;48.000;7.840;2022-12-11T01:55:43;1.80;99.90
1225;DHT22;602;48.000;7.840;2022-12-11T01:58:12;1.90;99.90
1225;DHT22;602;48.000;7.840;2022-12-11T02:00:43;1.90;99.90
1225;DHT22;602;48.000;7.840;2022-12-11T02:03:09;1.90;99.90
1225;DHT22;602;48.000;7.840;2022-12-11T02:05:36;1.90;99.90
1225;DHT22;602;48.000;7.840;2022-12-11T02:08:05;1.80;99.90
1225;DHT22;602;48.000;7.840;2022-12-11T02:10:43;1.80;99.90
1225;DHT22;602;48.000;7.840;2022-12-11T02:13:17;1.80;99.90
1225;DHT22;602;48.000;7.840;2022-12-11T02:15:50;1.70;99.90
1225;DHT22;602;48.000;7.840;2022-12-11T02:18:26;1.70;99.90
1225;DHT22;602;48.000;7.840;2022-12-11T02:21:02;1.70;99.90
1225;DHT22;602;48.000;7.840;2022-12-11T02:23:54;1.70;99.90
1225;DHT22;602;48.000;7.840;2022-12-11T02:26:39;1.80;99.90
1225;DHT22;602;48.000;7.840;2022-12-11T02:29:16;1.80;99.90
1225;DHT22;602;48.000;7.840;2022-12-11T02:31:46;1.90;99.90
1225;DHT22;602;48.000;7.840;2022-12-11T02:34:17;1.90;99.90
1225;DHT22;602;48.000;7.840;2022-12-11T02:36:48;1.80;99.90
1225;DHT22;602;48.000;7.840;2022-12-11T02:39:17;1.80;99.90
1225;DHT22;602;48.000;7.840;2022-12-11T02:41:48;1.80;99.90
1225;DHT22;602;48.000;7.840;2022-12-11T02:44:20;1.70;99.90
1225;DHT22;602;48.000;7.840;2022-12-11T02:46:47;1.70;99.90
1225;DHT22;602;48.000;7.840;2022-12-11T02:49:14;1.70;99.90
1225;DHT22;602;48.000;7.840;2022-12-11T02:51:42;1.70;99.90
1225;DHT22;602;48.000;7.840;2022-12-11T02:54:13;1.60;99.90
1225;DHT22;602;48.000;7.840;2022-12-11T02:56:43;1.60;99.90
1225;DHT22;602;48.000;7.840;2022-12-11T02:59:14;1.70;99.90
1225;DHT22;602;48.000;7.840;2022-12-11T03:01:43;1.80;99.90
1225;DHT22;602;48.000;7.840;2022-12-11T03:04:10;1.90;99.90
1225;DHT22;602;48.000;7.840;2022-12-11T03:06:40;2.00;99.90
1225;DHT22;602;48.000;7.840;2022-12-11T03:09:09;2.00;99.90
1225;DHT22;602;48.000;7.840;2022-12-11T03:11:36;2.00;99.90
1225;DHT22;602;48.000;7.840;2022-12-11T03:14:03;1.90;99.90
1225;DHT22;602;48.000;7.840;2022-12-11T03:16:34;1.90;99.90
1225;DHT22;602;48.000;7.840;2022-12-11T03:19:09;1.90;99.90
1225;DHT22;602;48.000;7.840;2022-12-11T03:21:41;1.80;99.90
1225;DHT22;602;48.000;7.840;2022-12-11T03:24:14;1.80;99.90
1225;DHT22;602;48.000;7.840;2022-12-11T03:26:48;1.80;99.90
1225;DHT22;602;48.000;7.840;2022-12-11T03:29:19;1.70;99.90
1225;DHT22;602;48.000;7.840;2022-12-11T03:31:51;1.80;99.90
1225;DHT22;602;48.000;7.840;2022-12-11T03:34:24;1.80;99.90
1225;DHT22;602;48.000;7.840;2022-12-11T03:36:54;1.80;99.90
1225;DHT22;602;48.000;7.840;2022-12-11T03:39:25;1.80;99.90
1225;DHT22;602;48.000;7.840;2022-12-11T03:41:55;1.80;99.90
1225;DHT22;602;48.000;7.840;2022-12-11T03:44:23;1.80;99.90
1225;DHT22;602;48.000;7.840;2022-12-11T03:46:51;1.70;99.90
1225;DHT22;602;48.000;7.840;2022-12-11T03:49:23;1.70;99.90
1225;DHT22;602;48.000;7.840;2022-12-11T03:51:54;1.70;99.90
1225;DHT22;602;48.000;7.840;2022-12-11T03:54:22;1.70;99.90
1225;DHT22;602;48.000;7.840;2022-12-11T03:56:53;1.50;99.90
1225;DHT22;602;48.000;7.840;2022-12-11T03:59:21;1.60;99.90
1225;DHT22;602;48.000;7.840;2022-12-11T04:01:48;1.60;99.90
1225;DHT22;602;48.000;7.840;2022-12-11T04:04:15;1.70;99.90
1225;DHT22;602;48.000;7.840;2022-12-11T04:06:43;1.70;99.90
1225;DHT22;602;48.000;7.840;2022-12-11T04:09:10;1.70;99.90
1225;DHT22;602;48.000;7.840;2022-12-11T04:11:37;1.70;99.90
1225;DHT22;602;48.000;7.840;2022-12-11T04:14:06;1.70;99.90
1225;DHT22;602;48.000;7.840;2022-12-11T04:16:51;1.60;99.90
1225;DHT22;602;48.000;7.840;2022-12-11T04:19:19;1.70;99.90
1225;DHT22;602;48.000;7.840;2022-12-11T04:22:05;1.70;99.90
1225;DHT22;602;48.000;7.840;2022-12-11T04:24:49;1.70;99.90
1225;DHT22;602;48.000;7.840;2022-12-11T04:27:16;1.50;99.90
1225;DHT22;602;48.000;7.840;2022-12-11T04:30:08;1.50;99.90
1225;DHT22;602;48.000;7.840;2022-12-11T04:32:35;1.50;99.90
1225;DHT22;602;48.000;7.840;2022-12-11T04:35:02;1.50;99.90
1225;DHT22;602;48.000;7.840;2022-12-11T04:37:31;1.50;99.90
1225;DHT22;602;48.000;7.840;2022-12-11T04:39:57;1.50;99.90
1225;DHT22;602;48.000;7.840;2022-12-11T04:42:24;1.50;99.90
1225;DHT22;602;48.000;7.840;2022-12-11T04:44:51;1.30;99.90
1225;DHT22;602;48.000;7.840;2022-12-11T04:47:18;1.30;99.90
1225;DHT22;602;48.000;7.840;2022-12-11T04:49:45;1.20;99.90
1225;DHT22;602;48.000;7.840;2022-12-11T04:52:12;1.30;99.90
1225;DHT22;602;48.000;7.840;2022-12-11T04:54:40;1.30;99.90
1225;DHT22;602;48.000;7.840;2022-12-11T04:57:07;1.30;99.90
1225;DHT22;602;48.000;7.840;2022-12-11T04:59:34;1.20;99.90
1225;DHT22;602;48.000;7.840;2022-12-11T05:02:01;1.20;99.90
1225;DHT22;602;48.000;7.840;2022-12-11T05:04:29;1.10;99.90
1225;DHT22;602;48.000;7.840;2022-12-11T05:06:57;1.10;99.90
1225;DHT22;602;48.000;7.840;2022-12-11T05:09:24;1.10;99.90
1225;DHT22;602;48.000;7.840;2022-12-11T05:11:53;1.20;99.90
1225;DHT22;602;48.000;7.840;2022-12-11T05:14:20;1.20;99.90
1225;DHT22;602;48.000;7.840;2022-12-11T05:16:47;1.20;99.90
1225;DHT22;602;48.000;7.840;2022-12-11T05:19:14;1.30;99.90
1225;DHT22;602;48.000;7.840;2022-12-11T05:21:41;1.30;99.90
1225;DHT22;602;48.000;7.840;2022-12-11T05:24:08;1.30;99.90
1225;DHT22;602;48.000;7.840;2022-12-11T05:26:35;1.20;99.90
1225;DHT22;602;48.000;7.840;2022-12-11T05:29:03;1.00;99.90
1225;DHT22;602;48.000;7.840;2022-12-11T05:31:30;1.10;99.90
1225;DHT22;602;48.000;7.840;2022-12-11T05:33:57;0.90;99.90
1225;DHT22;602;48.000;7.840;2022-12-11T05:36:25;0.90;99.90
1225;DHT22;602;48.000;7.840;2022-12-11T05:38:53;1.00;99.90
1225;DHT22;602;48.000;7.840;2022-12-11T05:41:21;1.10;99.90
1225;DHT22;602;48.000;7.840;2022-12-11T05:43:49;1.20;99.90
1225;DHT22;602;48.000;7.840;2022-12-11T05:46:19;1.30;99.90
1225;DHT22;602;48.000;7.840;2022-12-11T05:48:48;1.30;99.90
1225;DHT22;602;48.000;7.840;2022-12-11T05:51:16;1.10;99.90
1225;DHT22;602;48.000;7.840;2022-12-11T05:53:45;1.10;99.90
1225;DHT22;602;48.000;7.840;2022-12-11T05:56:14;1.20;99.90
1225;DHT22;602;48.000;7.840;2022-12-11T05:58:44;1.30;99.90
1225;DHT22;602;48.000;7.840;2022-12-11T06:01:12;1.40;99.90
1225;DHT22;602;48.000;7.840;2022-12-11T06:03:41;1.50;99.90
1225;DHT22;602;48.000;7.840;2022-12-11T06:06:08;1.50;99.90
1225;DHT22;602;48.000;7.840;2022-12-11T06:08:35;1.40;99.90
1225;DHT22;602;48.000;7.840;2022-12-11T06:11:02;1.40;99.90
1225;DHT22;602;48.000;7.840;2022-12-11T06:13:29;1.40;99.90
1225;DHT22;602;48.000;7.840;2022-12-11T06:16:00;1.40;99.90
1225;DHT22;602;48.000;7.840;2022-12-11T06:18:28;1.30;99.90
1225;DHT22;602;48.000;7.840;2022-12-11T06:21:15;1.30;99.90
1225;DHT22;602;48.000;7.840;2022-12-11T06:23:44;1.30;99.90
1225;DHT22;602;48.000;7.840;2022-12-11T06:26:12;1.20;99.90
1225;DHT22;602;48.000;7.840;2022-12-11T06:28:39;1.00;99.90
1225;DHT22;602;48.000;7.840;2022-12-11T06:31:06;1.10;99.90
1225;DHT22;602;48.000;7.840;2022-12-11T06:33:35;1.00;99.90
1225;DHT22;602;48.000;7.840;2022-12-11T06:36:04;1.00;99.90
1225;DHT22;602;48.000;7.840;2022-12-11T06:38:36;1.00;99.90
1225;DHT22;602;48.000;7.840;2022-12-11T06:41:05;0.90;99.90
1225;DHT22;602;48.000;7.840;2022-12-11T06:43:32;0.80;99.90
1225;DHT22;602;48.000;7.840;2022-12-11T06:46:02;0.80;99.90
1225;DHT22;602;48.000;7.840;2022-12-11T06:48:30;0.80;99.90
1225;DHT22;602;48.000;7.840;2022-12-11T06:50:57;0.80;99.90
1225;DHT22;602;48.000;7.840;2022-12-11T06:53:23;0.80;99.90
1225;DHT22;602;48.000;7.840;2022-12-11T06:55:52;0.70;99.90
1225;DHT22;602;48.000;7.840;2022-12-11T06:58:20;0.40;99.90
1225;DHT22;602;48.000;7.840;2022-12-11T07:00:46;0.30;99.90
1225;DHT22;602;48.000;7.840;2022-12-11T07:03:13;0.20;99.90
1225;DHT22;602;48.000;7.840;2022-12-11T07:05:40;0.30;99.90
1225;DHT22;602;48.000;7.840;2022-12-11T07:08:12;0.30;99.90
1225;DHT22;602;48.000;7.840;2022-12-11T07:10:39;0.30;99.90
1225;DHT22;602;48.000;7.840;2022-12-11T07:13:10;0.40;99.90
1225;DHT22;602;48.000;7.840;2022-12-11T07:15:36;0.40;99.90
1225;DHT22;602;48.000;7.840;2022-12-11T07:18:04;0.30;99.90
1225;DHT22;602;48.000;7.840;2022-12-11T07:20:30;0.30;99.90
1225;DHT22;602;48.000;7.840;2022-12-11T07:22:57;0.40;99.90
1225;DHT22;602;48.000;7.840;2022-12-11T07:25:32;0.30;99.90
1225;DHT22;602;48.000;7.840;2022-12-11T07:28:01;0.20;99.90
1225;DHT22;602;48.000;7.840;2022-12-11T07:30:30;0.10;99.90
1225;DHT22;602;48.000;7.840;2022-12-11T07:33:03;0.20;99.90
1225;DHT22;602;48.000;7.840;2022-12-11T07:35:38;0.10;99.90
1225;DHT22;602;48.000;7.840;2022-12-11T07:38:11;0.20;99.90
1225;DHT22;602;48.000;7.840;2022-12-11T07:40:43;0.30;99.90
1225;DHT22;602;48.000;7.840;2022-12-11T07:43:13;0.30;99.90
1225;DHT22;602;48.000;7.840;2022-12-11T07:45:58;0.40;99.90
1225;DHT22;602;48.000;7.840;2022-12-11T07:48:28;0.30;99.90
1225;DHT22;602;48.000;7.840;2022-12-11T07:51:10;0.20;99.90
1225;DHT22;602;48.000;7.840;2022-12-11T07:53:40;0.30;99.90
1225;DHT22;602;48.000;7.840;2022-12-11T07:56:07;0.30;99.90
1225;DHT22;602;48.000;7.840;2022-12-11T07:58:34;0.20;99.90
1225;DHT22;602;48.000;7.840;2022-12-11T08:01:05;0.30;99.90
1225;DHT22;602;48.000;7.840;2022-12-11T08:03:32;0.20;99.90
1225;DHT22;602;48.000;7.840;2022-12-11T08:05:59;0.20;99.90
1225;DHT22;602;48.000;7.840;2022-12-11T08:08:26;0.10;99.90
1225;DHT22;602;48.000;7.840;2022-12-11T08:10:59;0.10;99.90
1225;DHT22;602;48.000;7.840;2022-12-11T08:13:36;0.10;99.90
1225;DHT22;602;48.000;7.840;2022-12-11T08:16:14;0.00;99.90
1225;DHT22;602;48.000;7.840;2022-12-11T08:18:48;-0.10;99.90
1225;DHT22;602;48.000;7.840;2022-12-11T08:21:29;0.00;99.90
1225;DHT22;602;48.000;7.840;2022-12-11T08:23:57;0.10;99.90
1225;DHT22;602;48.000;7.840;2022-12-11T08:26:33;0.20;99.90
1225;DHT22;602;48.000;7.840;2022-12-11T08:29:00;0.10;99.90
1225;DHT22;602;48.000;7.840;2022-12-11T08:31:32;0.10;99.90
1225;DHT22;602;48.000;7.840;2022-12-11T08:34:05;0.10;99.90
1225;DHT22;602;48.000;7.840;2022-12-11T08:36:32;0.10;99.90
1225;DHT22;602;48.000;7.840;2022-12-11T08:39:02;0.20;99.90
1225;DHT22;602;48.000;7.840;2022-12-11T08:41:29;0.20;99.90
1225;DHT22;602;48.000;7.840;2022-12-11T08:43:57;0.30;99.90
1225;DHT22;602;48.000;7.840;2022-12-11T08:46:29;0.30;99.90
1225;DHT22;602;48.000;7.840;2022-12-11T08:48:57;0.30;99.90
1225;DHT22;602;48.000;7.840;2022-12-11T08:51:25;0.30;99.90
1225;DHT22;602;48.000;7.840;2022-12-11T08:53:54;0.30;99.90
1225;DHT22;602;48.000;7.840;2022-12-11T08:56:21;0.30;99.90
1225;DHT22;602;48.000;7.840;2022-12-11T08:58:48;0.20;99.90
1225;DHT22;602;48.000;7.840;2022-12-11T09:01:17;0.30;99.90
1225;DHT22;602;48.000;7.840;2022-12-11T09:03:48;0.20;99.90
1225;DHT22;602;48.000;7.840;2022-12-11T09:06:17;0.20;99.90
1225;DHT22;602;48.000;7.840;2022-12-11T09:08:45;0.30;99.90
1225;DHT22;602;48.000;7.840;2022-12-11T09:11:14;0.40;99.90
1225;DHT22;602;48.000;7.840;2022-12-11T09:13:42;0.50;99.90
1225;DHT22;602;48.000;7.840;2022-12-11T09:16:11;0.70;99.90
1225;DHT22;602;48.000;7.840;2022-12-11T09:18:44;1.00;99.90
1225;DHT22;602;48.000;7.840;2022-12-11T09:21:15;1.30;99.90
1225;DHT22;602;48.000;7.840;2022-12-11T09:23:44;1.40;99.90
1225;DHT22;602;48.000;7.840;2022-12-11T09:26:16;1.70;99.90
1225;DHT22;602;48.000;7.840;2022-12-11T09:28:43;1.90;99.90
1225;DHT22;602;48.000;7.840;2022-12-11T09:31:11;2.00;99.90
1225;DHT22;602;48.000;7.840;2022-12-11T09:33:38;2.20;99.90
1225;DHT22;602;48.000;7.840;2022-12-11T09:36:11;2.50;99.90
1225;DHT22;602;48.000;7.840;2022-12-11T09:38:40;2.60;99.90
1225;DHT22;602;48.000;7.840;2022-12-11T09:41:25;2.70;99.90
1225;DHT22;602;48.000;7.840;2022-12-11T09:44:00;2.90;99.90
1225;DHT22;602;48.000;7.840;2022-12-11T09:46:28;3.10;99.90
1225;DHT22;602;48.000;7.840;2022-12-11T09:48:56;3.30;99.90
1225;DHT22;602;48.000;7.840;2022-12-11T09:51:28;3.40;99.90
1225;DHT22;602;48.000;7.840;2022-12-11T09:54:02;3.50;99.90
1225;DHT22;602;48.000;7.840;2022-12-11T09:56:32;3.60;99.90
1225;DHT22;602;48.000;7.840;2022-12-11T09:59:05;3.80;99.90
1225;DHT22;602;48.000;7.840;2022-12-11T10:01:37;3.90;99.90
1225;DHT22;602;48.000;7.840;2022-12-11T10:04:23;4.10;99.90
1225;DHT22;602;48.000;7.840;2022-12-11T10:07:00;4.20;99.90
1225;DHT22;602;48.000;7.840;2022-12-11T10:09:46;4.30;99.90
1225;DHT22;602;48.000;7.840;2022-12-11T10:12:40;4.50;99.90
1225;DHT22;602;48.000;7.840;2022-12-11T10:15:28;4.70;99.90
1225;DHT22;602;48.000;7.840;2022-12-11T10:18:08;4.80;99.90
1225;DHT22;602;48.000;7.840;2022-12-11T10:20:53;4.80;99.90
1225;DHT22;602;48.000;7.840;2022-12-11T10:23:25;4.90;99.90
1225;DHT22;602;48.000;7.840;2022-12-11T10:26:02;4.80;99.90
1225;DHT22;602;48.000;7.840;2022-12-11T10:28:29;5.10;99.90
1225;DHT22;602;48.000;7.840;2022-12-11T10:31:04;5.10;99.90
1225;DHT22;602;48.000;7.840;2022-12-11T10:33:40;5.10;99.90
1225;DHT22;602;48.000;7.840;2022-12-11T10:36:19;5.10;99.90
1225;DHT22;602;48.000;7.840;2022-12-11T10:38:55;5.40;99.90
1225;DHT22;602;48.000;7.840;2022-12-11T10:41:32;5.40;99.90
1225;DHT22;602;48.000;7.840;2022-12-11T10:44:13;5.30;99.90
1225;DHT22;602;48.000;7.840;2022-12-11T10:46:40;5.50;99.90
1225;DHT22;602;48.000;7.840;2022-12-11T10:49:20;5.60;99.90
1225;DHT22;602;48.000;7.840;2022-12-11T10:51:47;5.60;99.90
1225;DHT22;602;48.000;7.840;2022-12-11T10:54:24;5.40;99.90
1225;DHT22;602;48.000;7.840;2022-12-11T10:56:55;5.60;99.90
1225;DHT22;602;48.000;7.840;2022-12-11T10:59:26;5.90;99.90
1225;DHT22;602;48.000;7.840;2022-12-11T11:01:56;6.00;99.90
1225;DHT22;602;48.000;7.840;2022-12-11T11:04:28;6.10;99.90
1225;DHT22;602;48.000;7.840;2022-12-11T11:07:10;6.20;99.90
1225;DHT22;602;48.000;7.840;2022-12-11T11:09:38;6.30;99.90
1225;DHT22;602;48.000;7.840;2022-12-11T11:12:19;6.40;99.90
1225;DHT22;602;48.000;7.840;2022-12-11T11:14:46;6.20;99.90
1225;DHT22;602;48.000;7.840;2022-12-11T11:17:14;6.10;99.90
1225;DHT22;602;48.000;7.840;2022-12-11T11:19:45;6.30;99.90
1225;DHT22;602;48.000;7.840;2022-12-11T11:22:14;6.40;99.90
1225;DHT22;602;48.000;7.840;2022-12-11T11:24:44;6.30;99.90
1225;DHT22;602;48.000;7.840;2022-12-11T11:27:26;6.30;99.90
1225;DHT22;602;48.000;7.840;2022-12-11T11:29:57;6.00;99.90
1225;DHT22;602;48.000;7.840;2022-12-11T11:32:29;5.80;99.90
1225;DHT22;602;48.000;7.840;2022-12-11T11:35:10;5.60;99.90
1225;DHT22;602;48.000;7.840;2022-12-11T11:37:43;5.40;99.90
1225;DHT22;602;48.000;7.840;2022-12-11T11:40:17;5.10;99.90
1225;DHT22;602;48.000;7.840;2022-12-11T11:42:48;4.90;99.90
1225;DHT22;602;48.000;7.840;2022-12-11T11:45:23;4.90;99.90
1225;DHT22;602;48.000;7.840;2022-12-11T11:47:57;4.80;99.90
1225;DHT22;602;48.000;7.840;2022-12-11T11:50:29;4.70;99.90
1225;DHT22;602;48.000;7.840;2022-12-11T11:53:01;4.80;99.90
1225;DHT22;602;48.000;7.840;2022-12-11T11:55:37;5.00;99.90
1225;DHT22;602;48.000;7.840;2022-12-11T11:58:11;5.00;99.90
1225;DHT22;602;48.000;7.840;2022-12-11T12:00:41;4.80;99.90
1225;DHT22;602;48.000;7.840;2022-12-11T12:03:10;5.00;99.90
1225;DHT22;602;48.000;7.840;2022-12-11T12:05:42;4.90;99.90
1225;DHT22;602;48.000;7.840;2022-12-11T12:08:15;4.80;99.90
1225;DHT22;602;48.000;7.840;2022-12-11T12:10:48;4.60;99.90
1225;DHT22;602;48.000;7.840;2022-12-11T12:13:24;4.50;99.90
1225;DHT22;602;48.000;7.840;2022-12-11T12:15:56;4.40;99.90
1225;DHT22;602;48.000;7.840;2022-12-11T12:18:31;4.50;99.90
1225;DHT22;602;48.000;7.840;2022-12-11T12:21:11;4.50;99.90
1225;DHT22;602;48.000;7.840;2022-12-11T12:23:57;4.30;99.90
1225;DHT22;602;48.000;7.840;2022-12-11T12:26:29;4.30;99.90
1225;DHT22;602;48.000;7.840;2022-12-11T12:29:06;4.30;99.90
1225;DHT22;602;48.000;7.840;2022-12-11T12:31:47;4.10;99.90
1225;DHT22;602;48.000;7.840;2022-12-11T12:34:24;3.90;99.90
1225;DHT22;602;48.000;7.840;2022-12-11T12:36:58;3.80;99.90
1225;DHT22;602;48.000;7.840;2022-12-11T12:39:33;3.60;99.90
1225;DHT22;602;48.000;7.840;2022-12-11T12:42:13;3.60;99.90
1225;DHT22;602;48.000;7.840;2022-12-11T12:44:48;3.50;99.90
1225;DHT22;602;48.000;7.840;2022-12-11T12:47:19;3.40;99.90
1225;DHT22;602;48.000;7.840;2022-12-11T12:49:48;3.40;99.90
1225;DHT22;602;48.000;7.840;2022-12-11T12:52:19;3.30;99.90
1225;DHT22;602;48.000;7.840;2022-12-11T12:54:51;3.10;99.90
1225;DHT22;602;48.000;7.840;2022-12-11T12:57:40;3.10;99.90
1225;DHT22;602;48.000;7.840;2022-12-11T13:00:09;3.20;99.90
1225;DHT22;602;48.000;7.840;2022-12-11T13:02:47;3.00;99.90
1225;DHT22;602;48.000;7.840;2022-12-11T13:05:19;3.10;99.90
1225;DHT22;602;48.000;7.840;2022-12-11T13:07:49;2.90;99.90
1225;DHT22;602;48.000;7.840;2022-12-11T13:10:31;2.90;99.90
1225;DHT22;602;48.000;7.840;2022-12-11T13:12:59;2.90;99.90
1225;DHT22;602;48.000;7.840;2022-12-11T13:15:33;2.90;99.90
1225;DHT22;602;48.000;7.840;2022-12-11T13:18:03;2.90;99.90
1225;DHT22;602;48.000;7.840;2022-12-11T13:20:32;2.80;99.90
1225;DHT22;602;48.000;7.840;2022-12-11T13:23:16;2.80;99.90
1225;DHT22;602;48.000;7.840;2022-12-11T13:25:51;2.90;99.90
1225;DHT22;602;48.000;7.840;2022-12-11T13:28:28;2.80;99.90
1225;DHT22;602;48.000;7.840;2022-12-11T13:31:04;2.80;99.90
1225;DHT22;602;48.000;7.840;2022-12-11T13:33:39;2.60;99.90
1225;DHT22;602;48.000;7.840;2022-12-11T13:36:29;2.60;99.90
1225;DHT22;602;48.000;7.840;2022-12-11T13:39:00;2.60;99.90
1225;DHT22;602;48.000;7.840;2022-12-11T13:41:28;2.50;99.90
1225;DHT22;602;48.000;7.840;2022-12-11T13:43:56;2.40;99.90
1225;DHT22;602;48.000;7.840;2022-12-11T13:46:26;2.40;99.90
1225;DHT22;602;48.000;7.840;2022-12-11T13:48:56;2.40;99.90
1225;DHT22;602;48.000;7.840;2022-12-11T13:51:27;2.30;99.90
1225;DHT22;602;48.000;7.840;2022-12-11T13:54:05;2.20;99.90
1225;DHT22;602;48.000;7.840;2022-12-11T13:56:32;2.30;99.90
1225;DHT22;602;48.000;7.840;2022-12-11T13:58:59;2.10;99.90
1225;DHT22;602;48.000;7.840;2022-12-11T14:01:28;2.10;99.90
1225;DHT22;602;48.000;7.840;2022-12-11T14:04:00;2.10;99.90
1225;DHT22;602;48.000;7.840;2022-12-11T14:06:28;2.10;99.90
1225;DHT22;602;48.000;7.840;2022-12-11T14:08:57;2.00;99.90
1225;DHT22;602;48.000;7.840;2022-12-11T14:11:27;1.90;99.90
1225;DHT22;602;48.000;7.840;2022-12-11T14:13:55;1.90;99.90
1225;DHT22;602;48.000;7.840;2022-12-11T14:16:24;1.90;99.90
1225;DHT22;602;48.000;7.840;2022-12-11T14:18:53;2.00;99.90
1225;DHT22;602;48.000;7.840;2022-12-11T14:21:23;1.90;99.90
1225;DHT22;602;48.000;7.840;2022-12-11T14:23:51;1.90;99.90
1225;DHT22;602;48.000;7.840;2022-12-11T14:26:20;1.90;99.90
1225;DHT22;602;48.000;7.840;2022-12-11T14:28:47;1.70;99.90
1225;DHT22;602;48.000;7.840;2022-12-11T14:31:17;1.60;99.90
1225;DHT22;602;48.000;7.840;2022-12-11T14:33:47;1.60;99.90
1225;DHT22;602;48.000;7.840;2022-12-11T14:36:16;1.50;99.90
1225;DHT22;602;48.000;7.840;2022-12-11T14:38:46;1.50;99.90
1225;DHT22;602;48.000;7.840;2022-12-11T14:41:18;1.50;99.90
1225;DHT22;602;48.000;7.840;2022-12-11T14:43:48;1.40;99.90
1225;DHT22;602;48.000;7.840;2022-12-11T14:46:18;1.40;99.90
1225;DHT22;602;48.000;7.840;2022-12-11T14:48:52;1.40;99.90
1225;DHT22;602;48.000;7.840;2022-12-11T14:51:21;1.30;99.90
1225;DHT22;602;48.000;7.840;2022-12-11T14:53:52;1.40;99.90
1225;DHT22;602;48.000;7.840;2022-12-11T14:56:20;1.40;99.90
1225;DHT22;602;48.000;7.840;2022-12-11T14:58:52;1.40;99.90
1225;DHT22;602;48.000;7.840;2022-12-11T15:01:22;1.50;99.90
1225;DHT22;602;48.000;7.840;2022-12-11T15:04:00;1.50;99.90
1225;DHT22;602;48.000;7.840;2022-12-11T15:06:28;1.50;99.90
1225;DHT22;602;48.000;7.840;2022-12-11T15:09:08;1.50;99.90
1225;DHT22;602;48.000;7.840;2022-12-11T15:11:35;1.40;99.90
1225;DHT22;602;48.000;7.840;2022-12-11T15:14:04;1.40;99.90
1225;DHT22;602;48.000;7.840;2022-12-11T15:16:33;1.40;99.90
1225;DHT22;602;48.000;7.840;2022-12-11T15:19:03;1.40;99.90
1225;DHT22;602;48.000;7.840;2022-12-11T15:21:32;1.40;99.90
1225;DHT22;602;48.000;7.840;2022-12-11T15:24:03;1.20;99.90
1225;DHT22;602;48.000;7.840;2022-12-11T15:26:33;1.10;99.90
1225;DHT22;602;48.000;7.840;2022-12-11T15:29:04;1.00;99.90
1225;DHT22;602;48.000;7.840;2022-12-11T15:31:33;1.00;99.90
1225;DHT22;602;48.000;7.840;2022-12-11T15:34:00;0.80;99.90
1225;DHT22;602;48.000;7.840;2022-12-11T15:36:31;0.90;99.90
1225;DHT22;602;48.000;7.840;2022-12-11T15:38:59;0.90;99.90
1225;DHT22;602;48.000;7.840;2022-12-11T15:41:28;0.80;99.90
1225;DHT22;602;48.000;7.840;2022-12-11T15:44:00;0.70;99.90
1225;DHT22;602;48.000;7.840;2022-12-11T15:46:28;0.70;99.90
1225;DHT22;602;48.000;7.840;2022-12-11T15:48:55;0.70;99.90
1225;DHT22;602;48.000;7.840;2022-12-11T15:51:22;0.60;99.90
1225;DHT22;602;48.000;7.840;2022-12-11T15:53:51;0.40;99.90
1225;DHT22;602;48.000;7.840;2022-12-11T15:56:18;0.20;99.90
1225;DHT22;602;48.000;7.840;2022-12-11T15:58:47;0.20;99.90
1225;DHT22;602;48.000;7.840;2022-12-11T16:01:14;0.20;99.90
1225;DHT22;602;48.000;7.840;2022-12-11T16:03:42;0.30;99.90
1225;DHT22;602;48.000;7.840;2022-12-11T16:06:11;0.30;99.90
1225;DHT22;602;48.000;7.840;2022-12-11T16:08:38;0.30;99.90
1225;DHT22;602;48.000;7.840;2022-12-11T16:11:05;0.30;99.90
1225;DHT22;602;48.000;7.840;2022-12-11T16:13:31;0.30;99.90
1225;DHT22;602;48.000;7.840;2022-12-11T16:16:00;0.30;99.90
1225;DHT22;602;48.000;7.840;2022-12-11T16:18:26;0.10;99.90
1225;DHT22;602;48.000;7.840;2022-12-11T16:20:53;0.00;99.90
1225;DHT22;602;48.000;7.840;2022-12-11T16:23:23;0.00;99.90
1225;DHT22;602;48.000;7.840;2022-12-11T16:25:50;0.10;99.90
1225;DHT22;602;48.000;7.840;2022-12-11T16:28:18;-0.10;99.90
1225;DHT22;602;48.000;7.840;2022-12-11T16:30:46;-0.30;99.90
1225;DHT22;602;48.000;7.840;2022-12-11T16:33:14;-0.40;99.90
1225;DHT22;602;48.000;7.840;2022-12-11T16:35:41;-0.60;99.90
1225;DHT22;602;48.000;7.840;2022-12-11T16:38:08;-0.50;99.90
1225;DHT22;602;48.000;7.840;2022-12-11T16:40:35;-0.60;99.90
1225;DHT22;602;48.000;7.840;2022-12-11T16:43:02;-0.70;99.90
1225;DHT22;602;48.000;7.840;2022-12-11T16:45:29;-0.80;99.90
1225;DHT22;602;48.000;7.840;2022-12-11T16:47:56;-0.60;99.90
1225;DHT22;602;48.000;7.840;2022-12-11T16:50:24;-0.50;99.90
1225;DHT22;602;48.000;7.840;2022-12-11T16:53:02;-0.40;99.90
1225;DHT22;602;48.000;7.840;2022-12-11T16:55:32;-0.20;99.90
1225;DHT22;602;48.000;7.840;2022-12-11T16:58:05;-0.20;99.90